Time;durP1;ratioP1;P1;durP2;ratioP2;P2;SDS_P1;SDS_P2;PMS_P1;PMS_P2;Temp;Humidity;BMP_temperature;BMP_pressure;BME280_temperature;BME280_humidity;BME280_pressure;Samples;Min_cycle;Max_cycle;Signal;HPM_P1;HPM_P2
2023/11/25 00:00:47;;;;;;;13.23;3.13;;;;;;;11.00;53.45;91593.44;4910074;29;20032;-75
2023/11/25 00:03:13;;;;;;;7.95;2.38;;;;;;;10.84;53.80;91579.66;4910843;29;20040;-75
2023/11/25 00:05:39;;;;;;;8.60;2.13;;;;;;;11.02;53.72;91595.72;4910595;29;20380;-75
2023/11/25 00:08:08;;;;;;;4.32;2.22;;;;;;;11.04;53.22;91588.91;4913330;29;20064;-75
2023/11/25 00:10:34;;;;;;;7.13;2.17;;;;;;;10.85;54.09;91580.41;4914391;29;20493;-75
2023/11/25 00:13:00;;;;;;;7.57;2.08;;;;;;;10.88;54.09;91569.78;4900027;29;20016;-76
2023/11/25 00:15:28;;;;;;;5.30;2.38;;;;;;;10.93;54.06;91572.13;4921191;28;20048;-75
2023/11/25 00:17:54;;;;;;;15.15;4.15;;;;;;;10.86;54.43;91566.72;4912763;28;20403;-76
2023/11/25 00:20:21;;;;;;;6.78;1.70;;;;;;;10.75;54.83;91544.63;4909694;29;20044;-74
2023/11/25 00:22:46;;;;;;;5.43;2.00;;;;;;;10.92;54.41;91578.56;4914940;28;20040;-75
2023/11/25 00:25:13;;;;;;;8.88;2.70;;;;;;;10.77;53.95;91557.53;4909437;29;20476;-75
2023/11/25 00:27:39;;;;;;;4.50;2.33;;;;;;;10.84;54.66;91547.75;4926836;28;20059;-74
2023/11/25 00:30:06;;;;;;;6.22;1.80;;;;;;;10.96;54.29;91554.66;4916132;29;20043;-74
2023/11/25 00:32:37;;;;;;;4.68;2.17;;;;;;;11.00;54.14;91550.13;4909260;29;20036;-74
2023/11/25 00:35:05;;;;;;;4.30;2.15;;;;;;;10.83;54.33;91530.25;4911455;29;20045;-76
2023/11/25 00:37:32;;;;;;;6.78;2.25;;;;;;;10.90;54.16;91540.94;4910071;29;20131;-74
2023/11/25 00:39:59;;;;;;;6.07;2.10;;;;;;;10.96;54.65;91528.81;4913951;29;20110;-75
2023/11/25 00:42:25;;;;;;;3.10;1.63;;;;;;;11.09;54.40;91516.75;4912738;28;20031;-74
2023/11/25 00:44:50;;;;;;;9.80;2.05;;;;;;;11.17;53.73;91512.25;4901408;29;20032;-75
2023/11/25 00:47:16;;;;;;;7.32;2.65;;;;;;;11.23;53.63;91528.63;4911696;29;20042;-74
2023/11/25 00:49:43;;;;;;;10.52;2.38;;;;;;;11.12;53.90;91526.66;4930307;28;20087;-75
2023/11/25 00:52:09;;;;;;;7.53;1.95;;;;;;;10.96;55.25;91518.19;4916200;29;20476;-74
2023/11/25 00:54:34;;;;;;;8.07;1.90;;;;;;;10.96;56.60;91544.78;4907240;29;20123;-75
2023/11/25 00:57:02;;;;;;;9.45;2.22;;;;;;;10.91;57.94;91539.78;4917435;29;20483;-74
2023/11/25 00:59:29;;;;;;;9.70;2.65;;;;;;;10.96;59.88;91531.47;4924689;28;20043;-75
2023/11/25 01:01:54;;;;;;;6.78;2.05;;;;;;;10.87;60.29;91503.69;4932346;28;20310;-74
2023/11/25 01:04:20;;;;;;;8.50;2.10;;;;;;;10.90;60.73;91506.38;4944597;28;20154;-76
2023/11/25 01:06:49;;;;;;;5.80;1.83;;;;;;;10.71;60.57;91498.63;4931022;28;20526;-74
2023/11/25 01:09:16;;;;;;;4.32;1.77;;;;;;;10.97;59.00;91525.03;4933552;28;20039;-76
2023/11/25 01:11:46;;;;;;;5.85;1.88;;;;;;;10.89;59.84;91496.13;4929450;28;20135;-75
2023/11/25 01:14:12;;;;;;;6.97;2.55;;;;;;;11.11;61.89;91503.84;4929683;28;20031;-74
2023/11/25 01:16:39;;;;;;;6.30;1.70;;;;;;;11.16;62.01;91492.09;4935223;28;20093;-75
2023/11/25 01:19:04;;;;;;;4.60;1.60;;;;;;;10.98;65.08;91484.00;4925048;28;20394;-74
2023/11/25 01:21:30;;;;;;;5.47;1.70;;;;;;;10.97;64.42;91490.47;4931973;28;20049;-74
2023/11/25 01:23:56;;;;;;;4.45;1.75;;;;;;;11.13;64.34;91459.03;4935845;28;20032;-74
2023/11/25 01:26:22;;;;;;;2.50;1.55;;;;;;;11.30;65.27;91460.22;4932202;28;20058;-75
2023/11/25 01:28:48;;;;;;;10.27;2.80;;;;;;;11.27;65.51;91476.94;4935498;28;20063;-74
2023/11/25 01:31:14;;;;;;;2.25;1.13;;;;;;;10.91;61.23;91475.22;4927838;28;20166;-75
2023/11/25 01:33:40;;;;;;;2.38;1.20;;;;;;;10.87;61.02;91480.53;4946107;28;20047;-74
2023/11/25 01:36:09;;;;;;;5.70;1.10;;;;;;;10.89;61.14;91470.28;4931312;28;20114;-74
2023/11/25 01:38:38;;;;;;;2.78;1.17;;;;;;;10.88;61.39;91487.38;4938000;28;20050;-74
2023/11/25 01:41:07;;;;;;;3.63;1.20;;;;;;;10.93;59.18;91497.66;4935405;28;20128;-74
2023/11/25 01:43:32;;;;;;;4.53;1.33;;;;;;;10.83;59.77;91482.41;4933766;28;20020;-75
2023/11/25 01:46:01;;;;;;;3.17;1.00;;;;;;;10.97;62.80;91487.81;4932935;28;20486;-75
2023/11/25 01:48:28;;;;;;;4.25;1.30;;;;;;;10.58;64.28;91474.25;4933183;28;20110;-74
2023/11/25 01:50:55;;;;;;;1.85;1.05;;;;;;;10.57;66.49;91470.06;4933966;28;20031;-74
2023/11/25 01:53:21;;;;;;;1.95;1.05;;;;;;;10.76;64.77;91492.97;4932035;28;20110;-74
2023/11/25 01:55:51;;;;;;;2.72;0.80;;;;;;;10.09;64.18;91482.53;4931113;28;20031;-75
2023/11/25 01:58:19;;;;;;;1.38;1.10;;;;;;;10.15;66.66;91467.81;4928787;28;20574;-75
2023/11/25 02:00:46;;;;;;;5.65;2.20;;;;;;;10.16;68.93;91465.91;4927373;28;20118;-75
2023/11/25 02:03:16;;;;;;;8.93;3.45;;;;;;;9.51;71.00;91479.66;4945535;28;20494;-75
2023/11/25 02:05:44;;;;;;;13.70;4.78;;;;;;;9.29;72.31;91464.66;4931473;28;20134;-76
2023/11/25 02:08:11;;;;;;;7.43;3.70;;;;;;;9.02;73.06;91459.34;4947343;28;20720;-75
2023/11/25 02:10:37;;;;;;;9.63;4.50;;;;;;;8.97;73.06;91450.94;4933201;28;20126;-75
2023/11/25 02:13:04;;;;;;;10.85;4.90;;;;;;;8.63;74.69;91475.84;4932140;28;20753;-74
2023/11/25 02:15:30;;;;;;;5.13;3.80;;;;;;;8.76;74.57;91471.84;4933136;28;20258;-75
2023/11/25 02:17:56;;;;;;;5.93;4.00;;;;;;;9.08;73.20;91472.28;4930904;28;20043;-75
2023/11/25 02:20:36;;;;;;;4.45;3.17;;;;;;;8.97;73.91;91475.56;4930448;28;20391;-76
2023/11/25 02:23:02;;;;;;;6.68;3.28;;;;;;;9.01;73.09;91471.06;4931954;28;20042;-75
2023/11/25 02:25:28;;;;;;;5.57;3.35;;;;;;;9.12;72.25;91465.19;4932567;28;20131;-75
2023/11/25 02:27:55;;;;;;;5.20;2.83;;;;;;;8.80;72.74;91452.25;4934096;28;20529;-76
2023/11/25 02:30:23;;;;;;;3.65;3.20;;;;;;;9.04;72.54;91466.97;4930917;28;20129;-76
2023/11/25 02:32:49;;;;;;;5.78;3.00;;;;;;;9.69;70.49;91485.16;4931694;28;20046;-75
2023/11/25 02:35:15;;;;;;;4.93;3.13;;;;;;;9.10;72.19;91473.44;4933807;28;20035;-74
2023/11/25 02:37:45;;;;;;;6.47;2.30;;;;;;;9.16;72.05;91464.09;4923055;28;20508;-76
2023/11/25 02:40:16;;;;;;;3.60;2.08;;;;;;;9.16;70.90;91472.03;4930164;28;20038;-75
2023/11/25 02:42:47;;;;;;;6.05;4.68;;;;;;;9.18;70.30;91469.81;4949203;28;20043;-75
2023/11/25 02:45:24;;;;;;;5.53;2.25;;;;;;;9.52;69.65;91493.69;4927709;28;20034;-75
2023/11/25 02:47:53;;;;;;;1.75;1.20;;;;;;;8.93;69.71;91471.34;4933324;28;20210;-74
2023/11/25 02:50:21;;;;;;;2.40;1.65;;;;;;;9.12;69.56;91497.00;4930773;28;20334;-75
2023/11/25 02:52:47;;;;;;;1.30;1.20;;;;;;;9.08;68.26;91498.81;4930879;28;20351;-76
2023/11/25 02:55:13;;;;;;;1.15;1.05;;;;;;;8.96;68.50;91502.44;4929451;28;20131;-75
2023/11/25 02:57:46;;;;;;;2.90;1.27;;;;;;;9.00;67.90;91487.31;4931170;28;20045;-76
2023/11/25 03:00:33;;;;;;;1.88;1.00;;;;;;;8.91;67.43;91495.56;4931211;28;20054;-75
2023/11/25 03:03:07;;;;;;;0.82;0.82;;;;;;;8.92;66.79;91488.38;4929700;28;20032;-75
2023/11/25 03:05:34;;;;;;;2.13;1.20;;;;;;;8.90;66.86;91493.28;4929671;28;20047;-74
2023/11/25 03:08:00;;;;;;;1.83;1.40;;;;;;;8.97;65.92;91494.13;4931999;28;20036;-75
2023/11/25 03:10:26;;;;;;;1.45;0.95;;;;;;;8.61;66.15;91494.00;4939679;28;20127;-75
2023/11/25 03:12:53;;;;;;;2.25;0.80;;;;;;;8.69;66.87;91520.22;4930972;28;20031;-75
2023/11/25 03:15:18;;;;;;;5.28;0.95;;;;;;;8.52;67.28;91513.53;4928525;28;20035;-75
2023/11/25 03:17:44;;;;;;;2.28;0.90;;;;;;;8.42;67.80;91500.88;4928705;28;20038;-75
2023/11/25 03:20:10;;;;;;;2.10;1.50;;;;;;;8.30;67.58;91501.09;4931075;28;20067;-74
2023/11/25 03:22:35;;;;;;;1.50;0.70;;;;;;;8.47;66.98;91505.13;4928264;28;20031;-76
2023/11/25 03:25:01;;;;;;;2.83;0.80;;;;;;;8.21;67.35;91484.69;4931595;28;20098;-74
2023/11/25 03:27:31;;;;;;;1.90;0.70;;;;;;;8.09;67.24;91467.06;4932539;28;20043;-75
2023/11/25 03:30:00;;;;;;;3.05;0.60;;;;;;;8.22;67.46;91485.44;4947220;28;20642;-75
2023/11/25 03:32:25;;;;;;;1.55;1.00;;;;;;;7.89;67.77;91467.47;4928802;28;20181;-75
2023/11/25 03:34:51;;;;;;;0.60;0.60;;;;;;;7.91;67.09;91481.13;4932225;28;20443;-74
2023/11/25 03:37:17;;;;;;;1.65;0.60;;;;;;;7.85;67.67;91487.81;4930608;28;20054;-75
2023/11/25 03:39:43;;;;;;;0.90;0.50;;;;;;;7.59;68.90;91486.59;4931598;28;20027;-75
2023/11/25 03:42:08;;;;;;;0.60;0.60;;;;;;;7.44;69.39;91482.13;4930808;28;20036;-76
2023/11/25 03:44:34;;;;;;;0.60;0.50;;;;;;;7.48;69.38;91495.44;4936503;28;20035;-75
2023/11/25 03:47:01;;;;;;;3.13;0.70;;;;;;;7.26;69.75;91467.81;4929944;28;20380;-75
2023/11/25 03:49:27;;;;;;;1.75;0.50;;;;;;;7.38;69.35;91470.34;4931305;28;20035;-75
2023/11/25 03:51:53;;;;;;;0.98;0.70;;;;;;;7.22;69.33;91477.56;4935363;28;20023;-75
2023/11/25 03:54:18;;;;;;;0.80;0.60;;;;;;;7.32;69.98;91482.28;4944791;28;20067;-75
2023/11/25 03:56:44;;;;;;;5.05;1.13;;;;;;;7.16;69.71;91463.09;4928493;28;20464;-75
2023/11/25 03:59:10;;;;;;;0.55;0.50;;;;;;;7.16;69.98;91471.03;4929646;28;21316;-75
2023/11/25 04:01:36;;;;;;;2.22;0.65;;;;;;;7.27;70.09;91472.00;4930411;28;20047;-75
2023/11/25 04:04:03;;;;;;;0.60;0.60;;;;;;;7.38;69.23;91457.13;4925987;28;20060;-76
2023/11/25 04:06:30;;;;;;;0.50;0.50;;;;;;;7.53;68.93;91471.38;4927975;28;20541;-75
2023/11/25 04:08:56;;;;;;;1.33;0.95;;;;;;;7.50;68.10;91472.81;4926839;28;20038;-74
2023/11/25 04:11:26;;;;;;;0.60;0.60;;;;;;;7.22;68.69;91477.56;4928915;28;20044;-75
2023/11/25 04:13:56;;;;;;;1.20;0.70;;;;;;;7.18;68.88;91476.75;4928557;28;20078;-75
2023/11/25 04:16:22;;;;;;;1.25;0.70;;;;;;;7.21;68.70;91473.38;4931474;28;20521;-74
2023/11/25 04:18:48;;;;;;;6.30;1.35;;;;;;;7.14;69.41;91476.66;4946580;28;20035;-75
2023/11/25 04:21:13;;;;;;;4.47;1.42;;;;;;;7.20;68.98;91477.91;4930483;28;20039;-75
2023/11/25 04:23:39;;;;;;;0.90;0.80;;;;;;;7.09;69.09;91482.19;4921136;28;20567;-75
2023/11/25 04:26:05;;;;;;;1.38;0.90;;;;;;;7.16;67.87;91487.66;4931415;28;20035;-75
2023/11/25 04:28:34;;;;;;;4.05;0.70;;;;;;;6.90;68.78;91476.16;4927746;28;20138;-76
2023/11/25 04:31:00;;;;;;;2.40;0.70;;;;;;;6.73;69.37;91464.88;4925773;28;20028;-74
2023/11/25 04:33:25;;;;;;;0.63;0.60;;;;;;;6.67;69.63;91484.72;4932026;28;20047;-75
2023/11/25 04:35:54;;;;;;;3.17;0.75;;;;;;;6.68;69.18;91461.72;4927523;28;20110;-76
2023/11/25 04:38:20;;;;;;;0.80;0.80;;;;;;;6.58;69.98;91483.38;4927813;28;20047;-75
2023/11/25 04:40:45;;;;;;;1.38;0.90;;;;;;;6.74;68.15;91484.13;4927502;28;20058;-75
2023/11/25 04:43:11;;;;;;;1.40;1.30;;;;;;;6.37;68.76;91487.06;4930947;28;20114;-75
2023/11/25 04:45:36;;;;;;;1.00;0.88;;;;;;;6.27;69.32;91500.78;4925807;28;20462;-75
2023/11/25 04:48:03;;;;;;;0.82;0.82;;;;;;;5.99;69.90;91461.28;4928649;28;20042;-74
2023/11/25 04:50:29;;;;;;;1.42;1.33;;;;;;;6.17;69.74;91488.09;4931021;28;20036;-74
2023/11/25 04:53:00;;;;;;;3.45;2.80;;;;;;;6.05;70.06;91482.13;4943607;28;20036;-75
2023/11/25 04:55:27;;;;;;;1.20;1.00;;;;;;;5.99;69.58;91492.94;4942726;28;20028;-75
2023/11/25 04:57:54;;;;;;;0.80;0.80;;;;;;;5.80;69.41;91482.28;4928477;28;20031;-75
2023/11/25 05:00:21;;;;;;;2.05;0.90;;;;;;;5.87;69.39;91490.38;4927808;28;20174;-75
2023/11/25 05:02:47;;;;;;;0.70;0.70;;;;;;;5.82;69.94;91498.53;4930915;28;20035;-74
2023/11/25 05:05:13;;;;;;;1.08;0.80;;;;;;;5.83;68.95;91510.63;4926536;28;21008;-74
2023/11/25 05:07:39;;;;;;;0.77;0.77;;;;;;;5.80;69.03;91513.19;4936071;28;20459;-75
2023/11/25 05:10:09;;;;;;;0.70;0.60;;;;;;;5.74;69.87;91517.94;4921219;28;20038;-75
2023/11/25 05:12:36;;;;;;;0.60;0.60;;;;;;;5.78;69.44;91497.69;4938645;28;20122;-74
2023/11/25 05:15:01;;;;;;;1.05;0.70;;;;;;;5.66;69.61;91512.81;4938405;28;20036;-74
2023/11/25 05:17:28;;;;;;;0.70;0.70;;;;;;;5.58;69.36;91498.66;4929812;28;20086;-76
2023/11/25 05:19:53;;;;;;;0.75;0.73;;;;;;;5.62;69.45;91506.69;4938832;28;20395;-76
2023/11/25 05:22:20;;;;;;;0.70;0.70;;;;;;;5.70;67.75;91519.72;4927187;28;20027;-75
2023/11/25 05:24:46;;;;;;;0.80;0.80;;;;;;;5.01;69.37;91505.06;4931461;28;20110;-76
2023/11/25 05:27:12;;;;;;;0.80;0.80;;;;;;;4.90;70.50;91511.09;4924278;28;20295;-76
2023/11/25 05:29:38;;;;;;;1.25;1.15;;;;;;;5.05;70.23;91537.53;4931080;28;20031;-75
2023/11/25 05:32:04;;;;;;;0.60;0.60;;;;;;;4.76;69.93;91529.91;4931768;28;20036;-76
2023/11/25 05:34:29;;;;;;;0.90;0.90;;;;;;;4.71;70.71;91543.28;4942083;28;20085;-75
2023/11/25 05:36:55;;;;;;;2.05;1.00;;;;;;;4.65;70.65;91549.88;4957526;28;20059;-75
2023/11/25 05:39:21;;;;;;;1.40;1.30;;;;;;;4.52;69.80;91545.72;4934955;28;20047;-75
2023/11/25 05:41:49;;;;;;;1.20;1.10;;;;;;;4.34;70.04;91526.00;4925525;28;20040;-75
2023/11/25 05:44:15;;;;;;;1.65;1.52;;;;;;;4.40;68.20;91551.00;4937472;28;20085;-75
2023/11/25 05:46:41;;;;;;;1.60;1.50;;;;;;;4.18;68.64;91570.56;4932696;28;20031;-76
2023/11/25 05:49:09;;;;;;;2.30;1.83;;;;;;;4.04;69.67;91581.41;4930221;28;20032;-75
2023/11/25 05:51:38;;;;;;;1.40;1.23;;;;;;;3.57;68.42;91574.91;4936152;28;20166;-75
2023/11/25 05:54:05;;;;;;;1.58;1.35;;;;;;;3.45;68.03;91578.25;4930437;28;20110;-75
2023/11/25 05:56:31;;;;;;;1.77;1.42;;;;;;;3.11;67.93;91581.16;4931147;28;20050;-75
2023/11/25 05:58:57;;;;;;;4.05;2.25;;;;;;;3.03;68.89;91624.00;4930003;28;20431;-76
2023/11/25 06:01:23;;;;;;;1.98;1.77;;;;;;;2.82;68.72;91626.59;4929579;28;20077;-75
2023/11/25 06:03:52;;;;;;;2.13;1.52;;;;;;;2.60;69.68;91621.63;4933808;28;20110;-76
2023/11/25 06:06:20;;;;;;;1.30;1.20;;;;;;;2.51;69.87;91619.81;4930181;28;20935;-75
2023/11/25 06:08:47;;;;;;;0.90;0.90;;;;;;;2.40;69.82;91620.50;4929876;28;20039;-74
2023/11/25 06:11:22;;;;;;;1.50;1.40;;;;;;;2.55;69.28;91653.31;4924267;28;20048;-75
2023/11/25 06:13:48;;;;;;;1.00;1.00;;;;;;;2.18;70.42;91652.19;4928738;28;20515;-75
2023/11/25 06:16:15;;;;;;;1.52;1.20;;;;;;;2.00;70.88;91625.25;4929800;28;20087;-75
2023/11/25 06:18:41;;;;;;;1.77;1.10;;;;;;;1.87;70.85;91629.56;4930009;28;20054;-74
2023/11/25 06:21:06;;;;;;;1.70;1.30;;;;;;;1.95;72.12;91646.38;4928519;28;20036;-75
2023/11/25 06:23:32;;;;;;;1.38;1.27;;;;;;;1.70;72.85;91641.91;4938463;28;20067;-75
2023/11/25 06:25:59;;;;;;;4.30;3.20;;;;;;;1.79;72.80;91680.13;4943112;28;20047;-76
2023/11/25 06:28:25;;;;;;;4.70;4.28;;;;;;;1.86;72.52;91658.72;4929165;28;20036;-74
2023/11/25 06:30:53;;;;;;;2.05;1.95;;;;;;;1.65;72.92;91661.19;4931592;28;20129;-74
2023/11/25 06:33:25;;;;;;;3.10;1.65;;;;;;;1.86;72.53;91680.44;4930948;28;20067;-74
2023/11/25 06:35:53;;;;;;;1.50;1.40;;;;;;;1.86;72.77;91663.94;4929330;28;20039;-75
2023/11/25 06:38:19;;;;;;;1.45;1.35;;;;;;;1.79;72.57;91659.16;4932976;28;20162;-75
2023/11/25 06:40:45;;;;;;;1.60;1.50;;;;;;;1.95;71.58;91662.13;4931536;28;20032;-76
2023/11/25 06:43:13;;;;;;;1.60;1.50;;;;;;;1.79;72.42;91685.38;4928404;28;20161;-74
2023/11/25 06:45:40;;;;;;;3.95;1.80;;;;;;;1.80;72.15;91676.44;4930307;28;20110;-74
2023/11/25 06:48:07;;;;;;;1.35;1.25;;;;;;;1.71;72.51;91656.56;4926023;28;20032;-75
2023/11/25 06:50:34;;;;;;;1.15;1.10;;;;;;;1.61;73.18;91679.38;4932893;28;20447;-75
2023/11/25 06:53:00;;;;;;;8.95;8.15;;;;;;;1.92;72.49;91678.44;4928351;28;20126;-75
2023/11/25 06:55:25;;;;;;;11.55;7.75;;;;;;;2.09;71.92;91675.81;4930553;28;20039;-74
2023/11/25 06:57:50;;;;;;;2.30;2.08;;;;;;;1.92;71.59;91660.88;4928944;28;20070;-75
2023/11/25 07:00:19;;;;;;;1.10;1.00;;;;;;;1.77;72.34;91671.03;4930002;28;20542;-75
2023/11/25 07:02:44;;;;;;;4.75;3.35;;;;;;;2.10;72.07;91682.59;4926871;28;20058;-76
2023/11/25 07:05:10;;;;;;;2.90;2.65;;;;;;;2.26;70.97;91688.88;4927691;28;20586;-75
2023/11/25 07:07:36;;;;;;;4.88;4.43;;;;;;;2.25;70.98;91679.47;4930381;28;20098;-76
2023/11/25 07:10:03;;;;;;;4.85;4.10;;;;;;;2.32;70.76;91689.47;4931725;28;20036;-75
2023/11/25 07:12:30;;;;;;;2.53;2.33;;;;;;;2.41;70.58;91698.84;4930687;28;20046;-75
2023/11/25 07:14:56;;;;;;;3.13;2.83;;;;;;;2.56;70.22;91694.16;4941510;28;20594;-75
2023/11/25 07:17:22;;;;;;;2.53;2.33;;;;;;;2.74;69.59;91693.81;4927260;28;20047;-75
2023/11/25 07:19:47;;;;;;;2.97;2.28;;;;;;;2.66;69.08;91672.84;4942357;28;20046;-75
2023/11/25 07:22:13;;;;;;;13.40;12.27;;;;;;;2.94;68.20;91671.31;4946527;28;20431;-76
2023/11/25 07:24:44;;;;;;;2.35;1.80;;;;;;;2.94;67.68;91652.94;4926057;28;20035;-76
2023/11/25 07:27:10;;;;;;;1.23;1.00;;;;;;;2.91;68.62;91664.06;4933890;28;20043;-74
2023/11/25 07:29:36;;;;;;;1.70;1.60;;;;;;;3.02;68.27;91667.09;4929448;28;20031;-75
2023/11/25 07:32:02;;;;;;;2.92;1.80;;;;;;;2.81;68.25;91641.56;4948529;28;20420;-76
2023/11/25 07:34:31;;;;;;;0.88;0.88;;;;;;;2.73;68.95;91660.00;4928369;28;20141;-75
2023/11/25 07:36:58;;;;;;;1.20;0.70;;;;;;;2.86;68.58;91664.25;4925705;28;20055;-75
2023/11/25 07:39:24;;;;;;;2.03;1.30;;;;;;;2.99;67.36;91667.75;4932083;28;20035;-77
2023/11/25 07:41:53;;;;;;;2.75;2.17;;;;;;;3.13;66.77;91663.03;4926691;28;20070;-75
2023/11/25 07:44:21;;;;;;;3.08;1.17;;;;;;;3.21;66.95;91660.34;4926713;28;20052;-76
2023/11/25 07:46:47;;;;;;;2.58;2.38;;;;;;;3.27;66.11;91653.81;4929234;28;20035;-75
2023/11/25 07:49:14;;;;;;;2.70;1.92;;;;;;;3.14;65.91;91641.69;4928690;28;20077;-74
2023/11/25 07:51:39;;;;;;;6.40;4.97;;;;;;;3.20;65.62;91637.78;4928277;28;20134;-76
2023/11/25 07:54:05;;;;;;;2.30;2.00;;;;;;;3.25;65.67;91637.59;4926671;28;20043;-76
2023/11/25 07:56:30;;;;;;;5.82;4.30;;;;;;;3.07;66.42;91638.03;4932212;28;20134;-75
2023/11/25 07:58:56;;;;;;;4.88;3.55;;;;;;;3.01;67.03;91645.34;4927845;28;20039;-75
2023/11/25 08:01:21;;;;;;;3.20;2.45;;;;;;;2.96;67.10;91645.50;4945294;28;20051;-74
2023/11/25 08:03:47;;;;;;;3.85;2.20;;;;;;;2.86;67.26;91624.88;4930465;28;20027;-74
2023/11/25 08:06:15;;;;;;;3.00;2.70;;;;;;;2.90;67.36;91657.28;4927315;28;20031;-75
2023/11/25 08:08:41;;;;;;;3.85;3.53;;;;;;;2.94;66.95;91643.19;4929642;28;20039;-74
2023/11/25 08:11:08;;;;;;;3.63;3.33;;;;;;;2.94;66.67;91648.44;4930206;28;20369;-74
2023/11/25 08:13:34;;;;;;;5.00;4.50;;;;;;;2.86;66.69;91638.78;4927228;28;20054;-76
2023/11/25 08:15:59;;;;;;;4.15;3.78;;;;;;;2.65;67.48;91642.44;4933735;28;20078;-74
2023/11/25 08:18:25;;;;;;;3.20;3.00;;;;;;;2.60;68.12;91645.25;4924119;28;20066;-75
2023/11/25 08:20:50;;;;;;;6.07;4.22;;;;;;;2.68;67.79;91647.06;4930820;28;20051;-75
2023/11/25 08:23:16;;;;;;;3.10;2.90;;;;;;;2.68;67.21;91647.06;4928186;28;20109;-74
2023/11/25 08:25:49;;;;;;;5.40;3.60;;;;;;;2.75;67.35;91655.19;4941029;28;20157;-75
2023/11/25 08:28:18;;;;;;;3.50;3.20;;;;;;;2.75;67.30;91653.34;4947388;28;20034;-75
2023/11/25 08:30:44;;;;;;;2.72;2.53;;;;;;;2.67;67.26;91650.75;4940805;28;20042;-76
2023/11/25 08:33:09;;;;;;;6.05;4.25;;;;;;;2.35;67.61;91634.53;4934951;28;20031;-75
2023/11/25 08:35:35;;;;;;;4.53;3.42;;;;;;;2.47;68.04;91663.50;4926404;28;20488;-75
2023/11/25 08:38:00;;;;;;;8.32;6.38;;;;;;;2.40;67.98;91659.84;4928229;28;20046;-76
2023/11/25 08:40:27;;;;;;;8.50;7.05;;;;;;;2.41;68.58;91658.72;4928045;28;20035;-76
2023/11/25 08:42:54;;;;;;;7.72;6.53;;;;;;;2.32;68.86;91648.28;4941663;28;20608;-76
2023/11/25 08:45:20;;;;;;;6.93;5.57;;;;;;;2.39;68.27;91660.91;4928275;28;20043;-76
2023/11/25 08:47:45;;;;;;;9.82;7.72;;;;;;;2.23;68.49;91647.53;4927840;28;20032;-76
2023/11/25 08:50:15;;;;;;;9.23;6.75;;;;;;;2.39;68.12;91650.44;4927698;28;20110;-76
2023/11/25 08:52:44;;;;;;;20.13;14.45;;;;;;;2.37;68.43;91658.59;4923021;28;20122;-77
2023/11/25 08:55:10;;;;;;;21.65;15.52;;;;;;;2.27;68.70;91637.19;4926720;28;20019;-76
2023/11/25 08:57:36;;;;;;;5.75;5.15;;;;;;;2.23;69.12;91641.53;4928130;28;20040;-75
2023/11/25 09:00:14;;;;;;;11.20;7.38;;;;;;;2.18;68.92;91634.59;4945535;28;20042;-76
2023/11/25 09:02:42;;;;;;;5.68;4.20;;;;;;;2.22;69.35;91653.09;4966821;28;20098;-75
2023/11/25 09:05:08;;;;;;;5.55;5.03;;;;;;;2.11;69.38;91636.19;4924240;28;20862;-77
2023/11/25 09:07:34;;;;;;;3.05;2.75;;;;;;;2.14;69.82;91659.91;4953691;28;20015;-76
2023/11/25 09:10:04;;;;;;;3.97;3.60;;;;;;;2.19;69.91;91646.63;4951655;28;20011;-76
2023/11/25 09:12:30;;;;;;;6.60;5.75;;;;;;;2.29;69.42;91650.75;4938175;28;20041;-78
2023/11/25 09:14:56;;;;;;;10.80;8.38;;;;;;;2.23;69.56;91642.28;4931637;28;21036;-77
2023/11/25 09:17:21;;;;;;;9.00;8.15;;;;;;;2.29;69.45;91627.94;4933300;28;20043;-78
2023/11/25 09:19:47;;;;;;;8.27;6.63;;;;;;;2.36;69.09;91641.31;4931601;28;20094;-78
2023/11/25 09:22:12;;;;;;;9.38;8.48;;;;;;;2.37;69.50;91655.19;4931411;28;20475;-76
2023/11/25 09:24:39;;;;;;;6.85;5.78;;;;;;;1.89;68.97;91576.84;4927883;28;20031;-77
2023/11/25 09:27:05;;;;;;;6.00;5.15;;;;;;;2.09;70.46;91652.22;4932763;28;20113;-78
2023/11/25 09:29:31;;;;;;;7.18;5.55;;;;;;;2.25;69.74;91650.63;4932207;28;20043;-74
2023/11/25 09:31:56;;;;;;;4.95;4.22;;;;;;;2.15;69.73;91637.84;4935523;28;20170;-78
2023/11/25 09:34:22;;;;;;;5.15;3.92;;;;;;;2.03;70.12;91632.47;4927953;28;20152;-76
2023/11/25 09:36:47;;;;;;;11.65;7.88;;;;;;;2.17;69.74;91640.16;4934736;28;20054;-77
2023/11/25 09:39:14;;;;;;;7.60;4.95;;;;;;;2.08;69.49;91625.22;4945823;28;20061;-77
2023/11/25 09:41:40;;;;;;;12.95;7.25;;;;;;;2.23;70.06;91631.81;4931310;28;20035;-77
2023/11/25 09:44:08;;;;;;;11.13;8.55;;;;;;;2.03;70.19;91611.50;4931665;28;20457;-75
2023/11/25 09:46:34;;;;;;;5.05;3.97;;;;;;;2.19;70.40;91615.16;4951674;28;20113;-77
2023/11/25 09:49:00;;;;;;;3.80;3.17;;;;;;;2.13;70.38;91613.00;4952499;28;20023;-74
2023/11/25 09:51:32;;;;;;;3.60;3.30;;;;;;;2.18;70.56;91611.00;4952353;28;20035;-77
2023/11/25 09:54:03;;;;;;;3.45;3.15;;;;;;;2.13;70.02;91579.69;4929162;28;20039;-78
2023/11/25 09:56:29;;;;;;;2.25;1.70;;;;;;;2.30;69.43;91610.34;4932702;28;20039;-77
2023/11/25 09:58:55;;;;;;;1.98;1.75;;;;;;;2.23;70.23;91616.06;4931636;28;20134;-77
2023/11/25 10:01:22;;;;;;;2.90;1.77;;;;;;;2.09;70.63;91589.28;4926753;28;20027;-77
2023/11/25 10:03:49;;;;;;;2.70;1.92;;;;;;;2.18;70.19;91597.13;4931326;28;20098;-77
2023/11/25 10:06:14;;;;;;;8.40;4.95;;;;;;;2.35;70.24;91587.31;4933521;28;20573;-77
2023/11/25 10:08:40;;;;;;;8.02;5.70;;;;;;;2.27;69.50;91564.53;4929639;28;20040;-78
2023/11/25 10:11:08;;;;;;;3.90;3.60;;;;;;;2.41;69.72;91580.03;4933750;28;20657;-78
2023/11/25 10:13:42;;;;;;;3.60;3.30;;;;;;;2.49;68.77;91572.16;4931448;28;20129;-78
2023/11/25 10:16:09;;;;;;;3.13;2.83;;;;;;;2.56;68.42;91586.59;4930050;28;20407;-78
2023/11/25 10:18:38;;;;;;;3.97;3.67;;;;;;;2.33;69.64;91573.75;4930902;28;20031;-78
2023/11/25 10:21:08;;;;;;;5.78;5.22;;;;;;;2.23;69.62;91558.38;4928292;28;20050;-77
2023/11/25 10:23:35;;;;;;;4.20;3.40;;;;;;;2.42;69.38;91571.84;4930126;28;20066;-78
2023/11/25 10:26:06;;;;;;;6.45;5.20;;;;;;;2.35;69.26;91557.72;4933947;28;20039;-77
2023/11/25 10:28:33;;;;;;;7.05;3.78;;;;;;;2.41;69.07;91559.06;4931572;28;20031;-78
2023/11/25 10:31:01;;;;;;;3.33;3.03;;;;;;;2.34;69.67;91562.19;4928726;28;20570;-74
2023/11/25 10:33:30;;;;;;;4.40;3.90;;;;;;;2.29;70.26;91545.84;4925161;28;20061;-77
2023/11/25 10:35:57;;;;;;;4.15;3.40;;;;;;;2.56;69.95;91566.38;4933587;28;20043;-77
2023/11/25 10:38:27;;;;;;;3.60;2.92;;;;;;;2.58;68.91;91566.06;4924072;28;20079;-76
2023/11/25 10:41:03;;;;;;;7.18;3.78;;;;;;;2.66;68.48;91571.25;4928742;28;20047;-78
2023/11/25 10:43:30;;;;;;;8.95;5.60;;;;;;;2.67;68.72;91561.53;4931780;28;20044;-77
2023/11/25 10:46:06;;;;;;;3.03;2.72;;;;;;;2.51;68.48;91556.06;4931733;28;20487;-77
2023/11/25 10:48:38;;;;;;;2.75;2.47;;;;;;;2.28;69.89;91545.09;4930038;28;20047;-75
2023/11/25 10:51:05;;;;;;;3.40;3.10;;;;;;;2.55;69.61;91543.84;4933609;28;20039;-79
2023/11/25 10:53:31;;;;;;;8.32;6.70;;;;;;;2.50;68.90;91515.94;4929777;28;20035;-75
2023/11/25 10:55:59;;;;;;;3.85;3.03;;;;;;;2.48;69.28;91510.25;4923423;28;20112;-77
2023/11/25 10:58:31;;;;;;;4.88;3.28;;;;;;;2.36;68.82;91483.94;4933671;28;20118;-74
2023/11/25 11:00:58;;;;;;;5.75;4.93;;;;;;;2.53;69.42;91504.81;4934745;28;20023;-77
2023/11/25 11:04:02;;;;;;;7.53;5.10;;;;;;;2.42;69.79;91502.88;4931193;28;20035;-77
2023/11/25 11:06:39;;;;;;;4.05;3.22;;;;;;;2.48;69.11;91499.78;4922421;28;20042;-78
2023/11/25 11:09:09;;;;;;;12.50;8.18;;;;;;;2.25;69.33;91471.53;4932664;28;20091;-77
2023/11/25 11:11:49;;;;;;;5.97;3.72;;;;;;;2.46;68.72;91467.81;4938570;28;20036;-78
2023/11/25 11:14:19;;;;;;;4.22;3.83;;;;;;;2.48;69.17;91475.38;4932153;28;20890;-78
2023/11/25 11:16:47;;;;;;;4.53;3.00;;;;;;;2.56;69.27;91481.66;4918444;28;20047;-77
2023/11/25 11:19:16;;;;;;;7.30;6.50;;;;;;;2.63;68.89;91476.66;4930982;28;20167;-77
2023/11/25 11:21:47;;;;;;;6.22;5.60;;;;;;;2.52;68.03;91450.03;4930880;28;20039;-77
2023/11/25 11:24:20;;;;;;;12.13;9.32;;;;;;;2.32;68.97;91443.69;4929015;28;20028;-78
2023/11/25 11:27:00;;;;;;;8.13;7.30;;;;;;;2.58;68.87;91458.50;4925150;28;20131;-77
2023/11/25 11:29:51;;;;;;;6.40;5.80;;;;;;;2.71;67.98;91462.72;4929930;28;20077;-77
2023/11/25 11:32:20;;;;;;;5.38;3.65;;;;;;;2.35;68.67;91419.44;4931846;28;20044;-79
2023/11/25 11:34:46;;;;;;;6.05;5.50;;;;;;;2.43;68.88;91421.25;4933220;28;20058;-75
2023/11/25 11:37:12;;;;;;;7.28;5.35;;;;;;;2.65;68.50;91433.25;4930801;28;20059;-79
2023/11/25 11:39:40;;;;;;;7.70;5.65;;;;;;;2.44;68.90;91435.91;4929898;28;20061;-77